sensor_id;sensor_type;location;lat;lon;timestamp;P1;durP1;ratioP1;P2;durP2;ratioP2
27580;SDS011;63557;52.302;7.964;2023-05-07T00:02:45;43.05;;;31.25;;
27580;SDS011;63557;52.302;7.964;2023-05-07T00:07:46;41.00;;;31.25;;
27580;SDS011;63557;52.302;7.964;2023-05-07T00:12:46;44.63;;;31.48;;
27580;SDS011;63557;52.302;7.964;2023-05-07T00:17:47;44.22;;;30.38;;
27580;SDS011;63557;52.302;7.964;2023-05-07T00:22:47;41.80;;;31.07;;
27580;SDS011;63557;52.302;7.964;2023-05-07T00:27:47;45.10;;;31.97;;
27580;SDS011;63557;52.302;7.964;2023-05-07T00:32:48;44.55;;;32.72;;
27580;SDS011;63557;52.302;7.964;2023-05-07T00:37:49;44.40;;;32.35;;
27580;SDS011;63557;52.302;7.964;2023-05-07T00:42:49;51.92;;;35.08;;
27580;SDS011;63557;52.302;7.964;2023-05-07T00:47:50;46.35;;;33.13;;
27580;SDS011;63557;52.302;7.964;2023-05-07T00:52:50;48.25;;;35.45;;
27580;SDS011;63557;52.302;7.964;2023-05-07T00:57:50;53.33;;;36.00;;
27580;SDS011;63557;52.302;7.964;2023-05-07T01:02:51;57.50;;;37.60;;
27580;SDS011;63557;52.302;7.964;2023-05-07T01:07:52;50.83;;;36.45;;
27580;SDS011;63557;52.302;7.964;2023-05-07T01:12:53;54.70;;;37.42;;
27580;SDS011;63557;52.302;7.964;2023-05-07T01:17:54;56.97;;;39.22;;
27580;SDS011;63557;52.302;7.964;2023-05-07T01:23:02;59.97;;;39.88;;
27580;SDS011;63557;52.302;7.964;2023-05-07T01:28:03;64.63;;;40.38;;
27580;SDS011;63557;52.302;7.964;2023-05-07T01:33:08;61.72;;;40.08;;
27580;SDS011;63557;52.302;7.964;2023-05-07T01:38:09;58.55;;;39.92;;
27580;SDS011;63557;52.302;7.964;2023-05-07T01:43:10;62.88;;;42.85;;
27580;SDS011;63557;52.302;7.964;2023-05-07T01:48:11;63.22;;;41.35;;
27580;SDS011;63557;52.302;7.964;2023-05-07T01:53:12;67.43;;;42.15;;
27580;SDS011;63557;52.302;7.964;2023-05-07T01:58:13;74.45;;;45.22;;
27580;SDS011;63557;52.302;7.964;2023-05-07T02:03:14;66.03;;;44.00;;
27580;SDS011;63557;52.302;7.964;2023-05-07T02:08:29;69.53;;;46.42;;
27580;SDS011;63557;52.302;7.964;2023-05-07T02:13:31;69.72;;;44.55;;
27580;SDS011;63557;52.302;7.964;2023-05-07T02:18:32;72.45;;;48.15;;
27580;SDS011;63557;52.302;7.964;2023-05-07T02:23:33;72.15;;;47.42;;
27580;SDS011;63557;52.302;7.964;2023-05-07T02:28:34;72.67;;;47.43;;
27580;SDS011;63557;52.302;7.964;2023-05-07T02:33:37;78.82;;;48.38;;
27580;SDS011;63557;52.302;7.964;2023-05-07T02:38:41;75.38;;;49.90;;
27580;SDS011;63557;52.302;7.964;2023-05-07T02:43:41;75.40;;;49.40;;
27580;SDS011;63557;52.302;7.964;2023-05-07T02:48:42;75.80;;;48.33;;
27580;SDS011;63557;52.302;7.964;2023-05-07T02:53:43;70.05;;;47.25;;
27580;SDS011;63557;52.302;7.964;2023-05-07T02:58:43;75.03;;;47.20;;
27580;SDS011;63557;52.302;7.964;2023-05-07T03:03:45;78.72;;;50.35;;
27580;SDS011;63557;52.302;7.964;2023-05-07T03:08:45;76.40;;;48.83;;
27580;SDS011;63557;52.302;7.964;2023-05-07T03:13:45;80.10;;;51.37;;
27580;SDS011;63557;52.302;7.964;2023-05-07T03:18:46;77.35;;;50.95;;
27580;SDS011;63557;52.302;7.964;2023-05-07T03:23:46;83.55;;;52.63;;
27580;SDS011;63557;52.302;7.964;2023-05-07T03:28:47;83.53;;;53.63;;
27580;SDS011;63557;52.302;7.964;2023-05-07T03:33:54;94.00;;;55.80;;
27580;SDS011;63557;52.302;7.964;2023-05-07T03:38:54;86.70;;;54.78;;
27580;SDS011;63557;52.302;7.964;2023-05-07T03:43:58;86.30;;;57.05;;
27580;SDS011;63557;52.302;7.964;2023-05-07T03:48:59;90.30;;;55.40;;
27580;SDS011;63557;52.302;7.964;2023-05-07T03:53:59;94.82;;;59.17;;
27580;SDS011;63557;52.302;7.964;2023-05-07T03:59:01;87.47;;;56.00;;
27580;SDS011;63557;52.302;7.964;2023-05-07T04:04:02;89.10;;;57.25;;
27580;SDS011;63557;52.302;7.964;2023-05-07T04:09:04;92.10;;;56.25;;
27580;SDS011;63557;52.302;7.964;2023-05-07T04:14:05;94.63;;;56.78;;
27580;SDS011;63557;52.302;7.964;2023-05-07T04:19:06;90.95;;;55.83;;
27580;SDS011;63557;52.302;7.964;2023-05-07T04:24:06;95.93;;;57.85;;
27580;SDS011;63557;52.302;7.964;2023-05-07T04:29:07;93.28;;;56.67;;
27580;SDS011;63557;52.302;7.964;2023-05-07T04:34:08;92.15;;;55.80;;
27580;SDS011;63557;52.302;7.964;2023-05-07T04:39:09;91.35;;;54.50;;
27580;SDS011;63557;52.302;7.964;2023-05-07T04:44:11;90.95;;;56.95;;
27580;SDS011;63557;52.302;7.964;2023-05-07T04:49:12;94.03;;;54.85;;
27580;SDS011;63557;52.302;7.964;2023-05-07T04:54:13;83.00;;;53.28;;
27580;SDS011;63557;52.302;7.964;2023-05-07T04:59:13;81.45;;;52.92;;
27580;SDS011;63557;52.302;7.964;2023-05-07T05:04:14;84.28;;;54.63;;
27580;SDS011;63557;52.302;7.964;2023-05-07T05:09:15;83.57;;;51.50;;
27580;SDS011;63557;52.302;7.964;2023-05-07T05:14:16;85.47;;;52.88;;
27580;SDS011;63557;52.302;7.964;2023-05-07T05:19:16;84.60;;;51.28;;
27580;SDS011;63557;52.302;7.964;2023-05-07T05:24:18;86.07;;;53.38;;
27580;SDS011;63557;52.302;7.964;2023-05-07T05:29:19;79.43;;;49.47;;
27580;SDS011;63557;52.302;7.964;2023-05-07T05:34:19;77.87;;;49.13;;
27580;SDS011;63557;52.302;7.964;2023-05-07T05:39:20;82.32;;;51.40;;
27580;SDS011;63557;52.302;7.964;2023-05-07T05:44:21;78.38;;;48.80;;
27580;SDS011;63557;52.302;7.964;2023-05-07T05:49:22;80.65;;;50.40;;
27580;SDS011;63557;52.302;7.964;2023-05-07T05:54:23;76.28;;;47.80;;
27580;SDS011;63557;52.302;7.964;2023-05-07T05:59:23;74.95;;;47.53;;
27580;SDS011;63557;52.302;7.964;2023-05-07T06:04:26;77.78;;;46.72;;
27580;SDS011;63557;52.302;7.964;2023-05-07T06:09:26;72.30;;;45.40;;
27580;SDS011;63557;52.302;7.964;2023-05-07T06:14:27;73.35;;;46.78;;
27580;SDS011;63557;52.302;7.964;2023-05-07T06:19:29;77.28;;;44.40;;
27580;SDS011;63557;52.302;7.964;2023-05-07T06:24:31;69.78;;;44.28;;
27580;SDS011;63557;52.302;7.964;2023-05-07T06:29:32;64.75;;;43.22;;
27580;SDS011;63557;52.302;7.964;2023-05-07T06:34:34;66.07;;;43.58;;
27580;SDS011;63557;52.302;7.964;2023-05-07T06:39:35;61.75;;;41.50;;
27580;SDS011;63557;52.302;7.964;2023-05-07T06:44:35;56.08;;;40.10;;
27580;SDS011;63557;52.302;7.964;2023-05-07T06:49:41;63.38;;;40.70;;
27580;SDS011;63557;52.302;7.964;2023-05-07T06:54:42;64.77;;;42.93;;
27580;SDS011;63557;52.302;7.964;2023-05-07T06:59:43;60.25;;;39.83;;
27580;SDS011;63557;52.302;7.964;2023-05-07T07:04:44;59.15;;;38.55;;
27580;SDS011;63557;52.302;7.964;2023-05-07T07:09:45;52.92;;;36.75;;
27580;SDS011;63557;52.302;7.964;2023-05-07T07:14:48;49.88;;;35.15;;
27580;SDS011;63557;52.302;7.964;2023-05-07T07:19:49;50.03;;;35.67;;
27580;SDS011;63557;52.302;7.964;2023-05-07T07:24:50;42.55;;;31.45;;
27580;SDS011;63557;52.302;7.964;2023-05-07T07:29:52;45.35;;;30.95;;
27580;SDS011;63557;52.302;7.964;2023-05-07T07:34:53;40.17;;;29.88;;
27580;SDS011;63557;52.302;7.964;2023-05-07T07:39:53;40.38;;;30.30;;
27580;SDS011;63557;52.302;7.964;2023-05-07T07:44:55;39.10;;;27.98;;
27580;SDS011;63557;52.302;7.964;2023-05-07T07:49:59;40.58;;;28.17;;
27580;SDS011;63557;52.302;7.964;2023-05-07T07:54:59;38.38;;;28.90;;
27580;SDS011;63557;52.302;7.964;2023-05-07T08:00:00;40.78;;;28.65;;
27580;SDS011;63557;52.302;7.964;2023-05-07T08:05:01;44.75;;;29.67;;
27580;SDS011;63557;52.302;7.964;2023-05-07T08:10:02;38.78;;;27.83;;
27580;SDS011;63557;52.302;7.964;2023-05-07T08:15:03;39.38;;;29.45;;
27580;SDS011;63557;52.302;7.964;2023-05-07T08:20:04;44.13;;;27.63;;
27580;SDS011;63557;52.302;7.964;2023-05-07T08:25:05;36.78;;;26.98;;
27580;SDS011;63557;52.302;7.964;2023-05-07T08:30:07;38.05;;;26.15;;
27580;SDS011;63557;52.302;7.964;2023-05-07T08:35:08;34.13;;;25.67;;
27580;SDS011;63557;52.302;7.964;2023-05-07T08:40:08;33.60;;;25.42;;
27580;SDS011;63557;52.302;7.964;2023-05-07T08:45:10;30.30;;;23.67;;
27580;SDS011;63557;52.302;7.964;2023-05-07T08:50:13;30.92;;;24.88;;
27580;SDS011;63557;52.302;7.964;2023-05-07T08:55:14;30.92;;;24.67;;
27580;SDS011;63557;52.302;7.964;2023-05-07T09:00:16;28.63;;;22.25;;
27580;SDS011;63557;52.302;7.964;2023-05-07T09:05:19;27.02;;;21.65;;
27580;SDS011;63557;52.302;7.964;2023-05-07T09:10:20;26.52;;;20.83;;
27580;SDS011;63557;52.302;7.964;2023-05-07T09:15:21;25.52;;;18.95;;
27580;SDS011;63557;52.302;7.964;2023-05-07T09:20:21;24.80;;;20.80;;
27580;SDS011;63557;52.302;7.964;2023-05-07T09:25:29;25.00;;;20.52;;
27580;SDS011;63557;52.302;7.964;2023-05-07T09:30:31;23.90;;;19.98;;
27580;SDS011;63557;52.302;7.964;2023-05-07T09:35:33;25.77;;;20.58;;
27580;SDS011;63557;52.302;7.964;2023-05-07T09:40:40;27.25;;;21.35;;
27580;SDS011;63557;52.302;7.964;2023-05-07T09:45:46;27.20;;;20.95;;
27580;SDS011;63557;52.302;7.964;2023-05-07T09:50:52;22.08;;;19.67;;
27580;SDS011;63557;52.302;7.964;2023-05-07T09:55:57;20.15;;;17.95;;
27580;SDS011;63557;52.302;7.964;2023-05-07T10:00:58;24.35;;;20.13;;
27580;SDS011;63557;52.302;7.964;2023-05-07T10:05:59;20.55;;;18.08;;
27580;SDS011;63557;52.302;7.964;2023-05-07T10:11:01;23.75;;;18.30;;
27580;SDS011;63557;52.302;7.964;2023-05-07T10:16:04;21.35;;;18.38;;
27580;SDS011;63557;52.302;7.964;2023-05-07T10:21:19;21.13;;;16.88;;
27580;SDS011;63557;52.302;7.964;2023-05-07T10:26:22;19.50;;;17.42;;
27580;SDS011;63557;52.302;7.964;2023-05-07T10:36:42;19.60;;;16.67;;
27580;SDS011;63557;52.302;7.964;2023-05-07T10:41:43;20.45;;;15.60;;
27580;SDS011;63557;52.302;7.964;2023-05-07T10:46:48;18.88;;;15.98;;
27580;SDS011;63557;52.302;7.964;2023-05-07T11:08:01;15.73;;;14.13;;
27580;SDS011;63557;52.302;7.964;2023-05-07T11:13:08;19.95;;;12.80;;
27580;SDS011;63557;52.302;7.964;2023-05-07T11:18:18;15.25;;;13.65;;
27580;SDS011;63557;52.302;7.964;2023-05-07T11:28:42;15.60;;;13.95;;
27580;SDS011;63557;52.302;7.964;2023-05-07T11:33:44;13.48;;;12.18;;
27580;SDS011;63557;52.302;7.964;2023-05-07T11:38:48;14.27;;;12.70;;
27580;SDS011;63557;52.302;7.964;2023-05-07T11:43:58;14.57;;;12.33;;
27580;SDS011;63557;52.302;7.964;2023-05-07T11:48:58;13.13;;;11.82;;
27580;SDS011;63557;52.302;7.964;2023-05-07T11:54:00;13.60;;;12.23;;
27580;SDS011;63557;52.302;7.964;2023-05-07T11:59:03;14.23;;;12.30;;
27580;SDS011;63557;52.302;7.964;2023-05-07T12:04:03;15.10;;;12.80;;
27580;SDS011;63557;52.302;7.964;2023-05-07T12:09:05;13.02;;;11.82;;
27580;SDS011;63557;52.302;7.964;2023-05-07T12:14:07;16.40;;;12.30;;
27580;SDS011;63557;52.302;7.964;2023-05-07T12:19:08;14.68;;;12.75;;
27580;SDS011;63557;52.302;7.964;2023-05-07T12:24:09;12.73;;;10.82;;
27580;SDS011;63557;52.302;7.964;2023-05-07T12:29:09;13.73;;;11.50;;
27580;SDS011;63557;52.302;7.964;2023-05-07T12:34:12;12.20;;;10.80;;
27580;SDS011;63557;52.302;7.964;2023-05-07T12:39:13;13.02;;;11.07;;
27580;SDS011;63557;52.302;7.964;2023-05-07T12:44:14;12.55;;;11.35;;
27580;SDS011;63557;52.302;7.964;2023-05-07T12:49:15;13.65;;;11.98;;
27580;SDS011;63557;52.302;7.964;2023-05-07T12:54:31;11.07;;;9.00;;
27580;SDS011;63557;52.302;7.964;2023-05-07T12:59:35;14.40;;;9.45;;
27580;SDS011;63557;52.302;7.964;2023-05-07T13:04:36;10.75;;;9.10;;
27580;SDS011;63557;52.302;7.964;2023-05-07T13:09:36;9.70;;;8.77;;
27580;SDS011;63557;52.302;7.964;2023-05-07T13:14:37;10.13;;;8.93;;
27580;SDS011;63557;52.302;7.964;2023-05-07T13:19:37;9.27;;;8.47;;
27580;SDS011;63557;52.302;7.964;2023-05-07T13:24:38;9.30;;;8.50;;
27580;SDS011;63557;52.302;7.964;2023-05-07T13:29:41;10.00;;;8.65;;
27580;SDS011;63557;52.302;7.964;2023-05-07T13:34:42;12.57;;;8.70;;
27580;SDS011;63557;52.302;7.964;2023-05-07T13:39:42;9.27;;;8.37;;
27580;SDS011;63557;52.302;7.964;2023-05-07T13:44:42;8.33;;;7.43;;
27580;SDS011;63557;52.302;7.964;2023-05-07T13:49:43;8.13;;;7.43;;
27580;SDS011;63557;52.302;7.964;2023-05-07T13:54:44;8.13;;;7.43;;
27580;SDS011;63557;52.302;7.964;2023-05-07T13:59:45;8.90;;;7.97;;
27580;SDS011;63557;52.302;7.964;2023-05-07T14:04:45;9.33;;;8.30;;
27580;SDS011;63557;52.302;7.964;2023-05-07T14:09:45;8.70;;;7.40;;
27580;SDS011;63557;52.302;7.964;2023-05-07T14:14:46;9.60;;;6.77;;
27580;SDS011;63557;52.302;7.964;2023-05-07T14:19:46;8.68;;;6.72;;
27580;SDS011;63557;52.302;7.964;2023-05-07T14:24:47;7.53;;;6.87;;
27580;SDS011;63557;52.302;7.964;2023-05-07T14:29:47;8.80;;;8.00;;
27580;SDS011;63557;52.302;7.964;2023-05-07T14:34:51;8.60;;;7.10;;
27580;SDS011;63557;52.302;7.964;2023-05-07T14:39:51;8.27;;;7.57;;
27580;SDS011;63557;52.302;7.964;2023-05-07T14:44:51;7.83;;;7.17;;
27580;SDS011;63557;52.302;7.964;2023-05-07T14:49:53;8.27;;;6.72;;
27580;SDS011;63557;52.302;7.964;2023-05-07T14:54:54;8.45;;;7.50;;
27580;SDS011;63557;52.302;7.964;2023-05-07T14:59:54;8.50;;;7.70;;
27580;SDS011;63557;52.302;7.964;2023-05-07T15:04:55;10.07;;;8.10;;
27580;SDS011;63557;52.302;7.964;2023-05-07T15:09:55;8.20;;;7.40;;
27580;SDS011;63557;52.302;7.964;2023-05-07T15:14:56;9.18;;;8.27;;
27580;SDS011;63557;52.302;7.964;2023-05-07T15:19:56;24.97;;;9.10;;
27580;SDS011;63557;52.302;7.964;2023-05-07T15:24:57;11.53;;;7.90;;
27580;SDS011;63557;52.302;7.964;2023-05-07T15:29:58;9.88;;;8.98;;
27580;SDS011;63557;52.302;7.964;2023-05-07T15:34:59;10.40;;;9.40;;
27580;SDS011;63557;52.302;7.964;2023-05-07T15:39:59;19.70;;;15.97;;
27580;SDS011;63557;52.302;7.964;2023-05-07T15:45:02;10.82;;;9.48;;
27580;SDS011;63557;52.302;7.964;2023-05-07T15:50:03;10.95;;;8.98;;
27580;SDS011;63557;52.302;7.964;2023-05-07T15:55:03;10.82;;;9.75;;
27580;SDS011;63557;52.302;7.964;2023-05-07T16:00:05;12.07;;;10.88;;
27580;SDS011;63557;52.302;7.964;2023-05-07T16:05:12;11.20;;;10.07;;
27580;SDS011;63557;52.302;7.964;2023-05-07T16:10:12;12.20;;;11.00;;
27580;SDS011;63557;52.302;7.964;2023-05-07T16:15:13;11.80;;;10.70;;
27580;SDS011;63557;52.302;7.964;2023-05-07T16:20:13;12.73;;;10.82;;
27580;SDS011;63557;52.302;7.964;2023-05-07T16:25:15;11.52;;;10.38;;
27580;SDS011;63557;52.302;7.964;2023-05-07T16:30:16;13.13;;;10.67;;
27580;SDS011;63557;52.302;7.964;2023-05-07T16:35:16;11.13;;;10.10;;
27580;SDS011;63557;52.302;7.964;2023-05-07T16:40:17;12.60;;;10.10;;
27580;SDS011;63557;52.302;7.964;2023-05-07T16:45:17;12.55;;;11.25;;
27580;SDS011;63557;52.302;7.964;2023-05-07T16:50:18;15.20;;;13.48;;
27580;SDS011;63557;52.302;7.964;2023-05-07T16:55:18;16.40;;;14.70;;
27580;SDS011;63557;52.302;7.964;2023-05-07T17:00:19;17.52;;;14.48;;
27580;SDS011;63557;52.302;7.964;2023-05-07T17:05:19;15.32;;;13.50;;
27580;SDS011;63557;52.302;7.964;2023-05-07T17:10:20;17.00;;;15.30;;
27580;SDS011;63557;52.302;7.964;2023-05-07T17:15:20;17.77;;;15.82;;
27580;SDS011;63557;52.302;7.964;2023-05-07T17:20:20;17.00;;;15.27;;
27580;SDS011;63557;52.302;7.964;2023-05-07T17:25:21;17.43;;;14.50;;
27580;SDS011;63557;52.302;7.964;2023-05-07T17:30:22;17.40;;;15.13;;
27580;SDS011;63557;52.302;7.964;2023-05-07T17:35:22;19.73;;;17.75;;
27580;SDS011;63557;52.302;7.964;2023-05-07T17:40:23;19.30;;;17.35;;
27580;SDS011;63557;52.302;7.964;2023-05-07T17:45:23;19.73;;;17.88;;
27580;SDS011;63557;52.302;7.964;2023-05-07T17:50:24;28.80;;;21.10;;
27580;SDS011;63557;52.302;7.964;2023-05-07T17:55:24;24.50;;;21.43;;
27580;SDS011;63557;52.302;7.964;2023-05-07T18:00:25;30.70;;;26.20;;
27580;SDS011;63557;52.302;7.964;2023-05-07T18:05:25;22.47;;;20.27;;
27580;SDS011;63557;52.302;7.964;2023-05-07T18:10:26;23.40;;;21.05;;
27580;SDS011;63557;52.302;7.964;2023-05-07T18:15:27;24.08;;;21.52;;
27580;SDS011;63557;52.302;7.964;2023-05-07T18:20:28;23.35;;;20.95;;
27580;SDS011;63557;52.302;7.964;2023-05-07T18:25:28;23.23;;;20.87;;
27580;SDS011;63557;52.302;7.964;2023-05-07T18:30:28;22.83;;;20.33;;
27580;SDS011;63557;52.302;7.964;2023-05-07T18:35:29;23.83;;;20.77;;
27580;SDS011;63557;52.302;7.964;2023-05-07T18:40:30;22.65;;;20.20;;
27580;SDS011;63557;52.302;7.964;2023-05-07T18:45:32;23.73;;;21.17;;
27580;SDS011;63557;52.302;7.964;2023-05-07T18:50:32;24.67;;;21.17;;
27580;SDS011;63557;52.302;7.964;2023-05-07T18:55:33;25.60;;;20.92;;
27580;SDS011;63557;52.302;7.964;2023-05-07T19:00:33;26.98;;;21.60;;
27580;SDS011;63557;52.302;7.964;2023-05-07T19:05:33;25.93;;;21.73;;
27580;SDS011;63557;52.302;7.964;2023-05-07T19:10:34;24.87;;;21.70;;
27580;SDS011;63557;52.302;7.964;2023-05-07T19:15:34;24.45;;;20.63;;
27580;SDS011;63557;52.302;7.964;2023-05-07T19:20:34;24.10;;;20.63;;
27580;SDS011;63557;52.302;7.964;2023-05-07T19:25:35;27.53;;;21.50;;
27580;SDS011;63557;52.302;7.964;2023-05-07T19:30:38;31.40;;;22.27;;
27580;SDS011;63557;52.302;7.964;2023-05-07T19:35:39;25.90;;;20.70;;
27580;SDS011;63557;52.302;7.964;2023-05-07T19:40:40;25.00;;;19.83;;
27580;SDS011;63557;52.302;7.964;2023-05-07T19:45:40;24.98;;;20.33;;
27580;SDS011;63557;52.302;7.964;2023-05-07T19:50:42;28.98;;;22.20;;
27580;SDS011;63557;52.302;7.964;2023-05-07T19:55:42;26.20;;;22.03;;
27580;SDS011;63557;52.302;7.964;2023-05-07T20:00:43;29.30;;;21.60;;
27580;SDS011;63557;52.302;7.964;2023-05-07T20:05:44;27.43;;;23.40;;
27580;SDS011;63557;52.302;7.964;2023-05-07T20:10:45;29.80;;;22.02;;
27580;SDS011;63557;52.302;7.964;2023-05-07T20:15:45;27.42;;;23.48;;
27580;SDS011;63557;52.302;7.964;2023-05-07T20:20:45;31.05;;;23.73;;
27580;SDS011;63557;52.302;7.964;2023-05-07T20:25:46;27.00;;;22.73;;
27580;SDS011;63557;52.302;7.964;2023-05-07T20:30:47;27.70;;;23.55;;
27580;SDS011;63557;52.302;7.964;2023-05-07T20:35:47;27.55;;;23.10;;
27580;SDS011;63557;52.302;7.964;2023-05-07T20:40:48;26.08;;;23.10;;
27580;SDS011;63557;52.302;7.964;2023-05-07T20:45:56;27.93;;;22.53;;
27580;SDS011;63557;52.302;7.964;2023-05-07T20:50:57;27.45;;;22.33;;
27580;SDS011;63557;52.302;7.964;2023-05-07T20:55:58;27.65;;;22.75;;
27580;SDS011;63557;52.302;7.964;2023-05-07T21:00:59;27.10;;;23.77;;
27580;SDS011;63557;52.302;7.964;2023-05-07T21:05:59;30.08;;;24.00;;
27580;SDS011;63557;52.302;7.964;2023-05-07T21:11:00;28.45;;;24.58;;
27580;SDS011;63557;52.302;7.964;2023-05-07T21:16:00;30.53;;;24.90;;
27580;SDS011;63557;52.302;7.964;2023-05-07T21:21:00;29.40;;;24.75;;
27580;SDS011;63557;52.302;7.964;2023-05-07T21:26:01;33.03;;;25.27;;
27580;SDS011;63557;52.302;7.964;2023-05-07T21:31:01;29.77;;;24.23;;
27580;SDS011;63557;52.302;7.964;2023-05-07T21:36:01;29.27;;;24.93;;
27580;SDS011;63557;52.302;7.964;2023-05-07T21:41:02;33.15;;;25.10;;
27580;SDS011;63557;52.302;7.964;2023-05-07T21:46:06;28.92;;;24.38;;
27580;SDS011;63557;52.302;7.964;2023-05-07T21:51:07;32.42;;;26.65;;
27580;SDS011;63557;52.302;7.964;2023-05-07T21:56:07;32.85;;;26.42;;
27580;SDS011;63557;52.302;7.964;2023-05-07T22:01:07;32.37;;;26.80;;
27580;SDS011;63557;52.302;7.964;2023-05-07T22:06:11;34.33;;;25.40;;
27580;SDS011;63557;52.302;7.964;2023-05-07T22:11:11;31.95;;;25.17;;
27580;SDS011;63557;52.302;7.964;2023-05-07T22:16:12;31.17;;;25.30;;
27580;SDS011;63557;52.302;7.964;2023-05-07T22:21:12;30.43;;;24.77;;
27580;SDS011;63557;52.302;7.964;2023-05-07T22:26:12;32.97;;;26.03;;
27580;SDS011;63557;52.302;7.964;2023-05-07T22:31:13;32.17;;;25.50;;
27580;SDS011;63557;52.302;7.964;2023-05-07T22:36:13;31.00;;;24.93;;
27580;SDS011;63557;52.302;7.964;2023-05-07T22:41:13;33.73;;;26.20;;
27580;SDS011;63557;52.302;7.964;2023-05-07T22:46:14;35.40;;;26.15;;
27580;SDS011;63557;52.302;7.964;2023-05-07T22:51:14;31.20;;;24.37;;
27580;SDS011;63557;52.302;7.964;2023-05-07T22:56:15;32.63;;;26.10;;
27580;SDS011;63557;52.302;7.964;2023-05-07T23:01:16;33.78;;;25.30;;
27580;SDS011;63557;52.302;7.964;2023-05-07T23:06:17;28.50;;;23.98;;
27580;SDS011;63557;52.302;7.964;2023-05-07T23:11:17;30.13;;;24.13;;
27580;SDS011;63557;52.302;7.964;2023-05-07T23:16:18;31.95;;;25.73;;
27580;SDS011;63557;52.302;7.964;2023-05-07T23:21:18;29.97;;;24.13;;
27580;SDS011;63557;52.302;7.964;2023-05-07T23:26:19;29.05;;;24.13;;
27580;SDS011;63557;52.302;7.964;2023-05-07T23:31:19;29.00;;;25.00;;
27580;SDS011;63557;52.302;7.964;2023-05-07T23:36:20;26.60;;;23.02;;
27580;SDS011;63557;52.302;7.964;2023-05-07T23:41:20;25.57;;;22.07;;
27580;SDS011;63557;52.302;7.964;2023-05-07T23:46:20;26.75;;;21.42;;
27580;SDS011;63557;52.302;7.964;2023-05-07T23:51:21;24.45;;;21.02;;
27580;SDS011;63557;52.302;7.964;2023-05-07T23:56:21;24.65;;;20.75;;
